< < Back
Terminal Aerodrome Forecast


Current Version              Previous Versions:   1  2  3  4  5  6  7  8  9  

Terminal Aerodrome Forecast

586
FTUS42 KFFC 262200 AAA
TAFFTY
TAF AMD
KFTY 262200Z 2622/2718 12008KT P6SM VCSH SCT060
     FM270100 10004KT P6SM SCT250
     FM271500 09007KT P6SM SCT045=

Latest METAR

065
SAUS70 KWBC 271800 RRJ
MTRFTY
METAR KFTY 271753Z 07007KT 10SM BKN045 BKN060 32/21 A3009 RMK AO2 SLP179
T03220211 10328 20222 58012


USA.gov is the U.S. government's official web portal to all federal, state and local government web resources and services.